sensor_id;sensor_type;location;lat;lon;timestamp;temperature;humidity
68177;DHT22;56478;50.982;7.032;2024-01-15T00:02:15;2.20;87.47
68177;DHT22;56478;50.982;7.032;2024-01-15T00:04:41;2.07;88.57
68177;DHT22;56478;50.982;7.032;2024-01-15T00:07:07;2.07;88.76
68177;DHT22;56478;50.982;7.032;2024-01-15T00:09:33;2.01;89.16
68177;DHT22;56478;50.982;7.032;2024-01-15T00:11:59;2.03;89.30
68177;DHT22;56478;50.982;7.032;2024-01-15T00:14:25;2.03;89.11
68177;DHT22;56478;50.982;7.032;2024-01-15T00:16:51;2.07;88.74
68177;DHT22;56478;50.982;7.032;2024-01-15T00:19:17;2.11;89.11
68177;DHT22;56478;50.982;7.032;2024-01-15T00:21:43;2.17;88.96
68177;DHT22;56478;50.982;7.032;2024-01-15T00:24:08;2.14;88.96
68177;DHT22;56478;50.982;7.032;2024-01-15T00:26:34;2.08;88.67
68177;DHT22;56478;50.982;7.032;2024-01-15T00:29:00;2.03;88.93
68177;DHT22;56478;50.982;7.032;2024-01-15T00:31:25;1.98;89.01
68177;DHT22;56478;50.982;7.032;2024-01-15T00:33:51;2.10;89.43
68177;DHT22;56478;50.982;7.032;2024-01-15T00:36:17;2.00;89.52
68177;DHT22;56478;50.982;7.032;2024-01-15T00:38:46;2.01;89.55
68177;DHT22;56478;50.982;7.032;2024-01-15T00:41:13;1.87;89.93
68177;DHT22;56478;50.982;7.032;2024-01-15T00:43:38;1.81;90.21
68177;DHT22;56478;50.982;7.032;2024-01-15T00:46:04;1.90;90.37
68177;DHT22;56478;50.982;7.032;2024-01-15T00:48:30;1.91;90.38
68177;DHT22;56478;50.982;7.032;2024-01-15T00:50:55;1.91;90.33
68177;DHT22;56478;50.982;7.032;2024-01-15T00:53:21;1.84;90.68
68177;DHT22;56478;50.982;7.032;2024-01-15T00:55:49;1.88;90.54
68177;DHT22;56478;50.982;7.032;2024-01-15T00:58:15;1.93;90.70
68177;DHT22;56478;50.982;7.032;2024-01-15T01:00:41;1.94;90.50
68177;DHT22;56478;50.982;7.032;2024-01-15T01:03:07;1.90;90.53
68177;DHT22;56478;50.982;7.032;2024-01-15T01:05:33;1.94;90.82
68177;DHT22;56478;50.982;7.032;2024-01-15T01:07:59;2.04;90.56
68177;DHT22;56478;50.982;7.032;2024-01-15T01:10:25;2.05;90.29
68177;DHT22;56478;50.982;7.032;2024-01-15T01:12:50;2.11;90.32
68177;DHT22;56478;50.982;7.032;2024-01-15T01:15:16;2.10;89.98
68177;DHT22;56478;50.982;7.032;2024-01-15T01:17:42;2.08;89.95
68177;DHT22;56478;50.982;7.032;2024-01-15T01:20:07;2.22;90.07
68177;DHT22;56478;50.982;7.032;2024-01-15T01:22:34;2.21;89.70
68177;DHT22;56478;50.982;7.032;2024-01-15T01:25:00;2.11;89.87
68177;DHT22;56478;50.982;7.032;2024-01-15T01:27:26;2.14;89.59
68177;DHT22;56478;50.982;7.032;2024-01-15T01:29:51;2.12;89.61
68177;DHT22;56478;50.982;7.032;2024-01-15T01:32:18;2.07;89.81
68177;DHT22;56478;50.982;7.032;2024-01-15T01:34:43;2.20;89.94
68177;DHT22;56478;50.982;7.032;2024-01-15T01:37:12;2.15;90.14
68177;DHT22;56478;50.982;7.032;2024-01-15T01:39:40;2.04;90.31
68177;DHT22;56478;50.982;7.032;2024-01-15T01:42:06;2.17;90.31
68177;DHT22;56478;50.982;7.032;2024-01-15T01:44:32;2.26;90.03
68177;DHT22;56478;50.982;7.032;2024-01-15T01:46:59;2.26;89.80
68177;DHT22;56478;50.982;7.032;2024-01-15T01:49:25;2.25;89.97
68177;DHT22;56478;50.982;7.032;2024-01-15T01:51:51;2.22;90.24
68177;DHT22;56478;50.982;7.032;2024-01-15T01:54:18;2.21;90.25
68177;DHT22;56478;50.982;7.032;2024-01-15T01:56:44;2.24;89.67
68177;DHT22;56478;50.982;7.032;2024-01-15T01:59:10;2.25;89.68
68177;DHT22;56478;50.982;7.032;2024-01-15T02:01:36;2.22;89.81
68177;DHT22;56478;50.982;7.032;2024-01-15T02:04:02;2.24;89.66
68177;DHT22;56478;50.982;7.032;2024-01-15T02:06:28;2.25;89.30
68177;DHT22;56478;50.982;7.032;2024-01-15T02:08:54;2.28;89.74
68177;DHT22;56478;50.982;7.032;2024-01-15T02:11:20;2.29;89.66
68177;DHT22;56478;50.982;7.032;2024-01-15T02:13:45;2.35;89.34
68177;DHT22;56478;50.982;7.032;2024-01-15T02:16:11;2.31;89.55
68177;DHT22;56478;50.982;7.032;2024-01-15T02:18:43;2.29;89.60
68177;DHT22;56478;50.982;7.032;2024-01-15T02:21:09;2.29;89.46
68177;DHT22;56478;50.982;7.032;2024-01-15T02:23:35;2.20;89.31
68177;DHT22;56478;50.982;7.032;2024-01-15T02:26:00;2.25;89.43
68177;DHT22;56478;50.982;7.032;2024-01-15T02:28:26;2.31;89.19
68177;DHT22;56478;50.982;7.032;2024-01-15T02:30:52;2.28;89.48
68177;DHT22;56478;50.982;7.032;2024-01-15T02:33:17;2.25;89.34
68177;DHT22;56478;50.982;7.032;2024-01-15T02:35:43;2.26;89.19
68177;DHT22;56478;50.982;7.032;2024-01-15T02:38:09;2.28;89.02
68177;DHT22;56478;50.982;7.032;2024-01-15T02:40:34;2.38;89.37
68177;DHT22;56478;50.982;7.032;2024-01-15T02:43:00;2.35;89.63
68177;DHT22;56478;50.982;7.032;2024-01-15T02:45:26;2.28;89.36
68177;DHT22;56478;50.982;7.032;2024-01-15T02:47:52;2.33;89.18
68177;DHT22;56478;50.982;7.032;2024-01-15T02:50:17;2.29;89.36
68177;DHT22;56478;50.982;7.032;2024-01-15T02:52:43;2.33;89.47
68177;DHT22;56478;50.982;7.032;2024-01-15T02:55:08;2.38;89.19
68177;DHT22;56478;50.982;7.032;2024-01-15T02:57:34;2.45;89.21
68177;DHT22;56478;50.982;7.032;2024-01-15T03:00:00;2.38;89.22
68177;DHT22;56478;50.982;7.032;2024-01-15T03:02:25;2.42;89.42
68177;DHT22;56478;50.982;7.032;2024-01-15T03:04:51;2.42;89.18
68177;DHT22;56478;50.982;7.032;2024-01-15T03:07:17;2.39;89.13
68177;DHT22;56478;50.982;7.032;2024-01-15T03:09:42;2.47;88.85
68177;DHT22;56478;50.982;7.032;2024-01-15T03:12:08;2.53;89.03
68177;DHT22;56478;50.982;7.032;2024-01-15T03:14:34;2.53;88.82
68177;DHT22;56478;50.982;7.032;2024-01-15T03:17:00;2.43;88.43
68177;DHT22;56478;50.982;7.032;2024-01-15T03:19:26;2.42;88.20
68177;DHT22;56478;50.982;7.032;2024-01-15T03:21:51;2.39;88.61
68177;DHT22;56478;50.982;7.032;2024-01-15T03:24:17;2.39;88.92
68177;DHT22;56478;50.982;7.032;2024-01-15T03:26:43;2.39;88.66
68177;DHT22;56478;50.982;7.032;2024-01-15T03:29:08;2.40;88.77
68177;DHT22;56478;50.982;7.032;2024-01-15T03:31:34;2.35;88.39
68177;DHT22;56478;50.982;7.032;2024-01-15T03:34:00;2.31;88.31
68177;DHT22;56478;50.982;7.032;2024-01-15T03:36:26;2.36;88.81
68177;DHT22;56478;50.982;7.032;2024-01-15T03:38:51;2.40;88.58
68177;DHT22;56478;50.982;7.032;2024-01-15T03:41:17;2.31;88.91
68177;DHT22;56478;50.982;7.032;2024-01-15T03:43:42;2.35;88.63
68177;DHT22;56478;50.982;7.032;2024-01-15T03:46:08;2.36;88.41
68177;DHT22;56478;50.982;7.032;2024-01-15T03:48:34;2.36;88.51
68177;DHT22;56478;50.982;7.032;2024-01-15T03:50:59;2.36;88.63
68177;DHT22;56478;50.982;7.032;2024-01-15T03:53:25;2.45;88.91
68177;DHT22;56478;50.982;7.032;2024-01-15T03:55:50;2.39;88.28
68177;DHT22;56478;50.982;7.032;2024-01-15T03:58:16;2.46;88.35
68177;DHT22;56478;50.982;7.032;2024-01-15T04:00:42;2.49;88.69
68177;DHT22;56478;50.982;7.032;2024-01-15T04:03:08;2.47;88.25
68177;DHT22;56478;50.982;7.032;2024-01-15T04:05:33;2.43;88.46
68177;DHT22;56478;50.982;7.032;2024-01-15T04:07:59;2.49;88.24
68177;DHT22;56478;50.982;7.032;2024-01-15T04:10:25;2.45;88.31
68177;DHT22;56478;50.982;7.032;2024-01-15T04:12:50;2.42;88.33
68177;DHT22;56478;50.982;7.032;2024-01-15T04:15:16;2.40;88.50
68177;DHT22;56478;50.982;7.032;2024-01-15T04:17:42;2.38;88.51
68177;DHT22;56478;50.982;7.032;2024-01-15T04:20:07;2.46;88.66
68177;DHT22;56478;50.982;7.032;2024-01-15T04:22:34;2.47;88.67
68177;DHT22;56478;50.982;7.032;2024-01-15T04:25:00;2.49;88.27
68177;DHT22;56478;50.982;7.032;2024-01-15T04:27:26;2.52;88.60
68177;DHT22;56478;50.982;7.032;2024-01-15T04:29:51;2.58;88.32
68177;DHT22;56478;50.982;7.032;2024-01-15T04:32:18;2.52;88.25
68177;DHT22;56478;50.982;7.032;2024-01-15T04:34:43;2.53;88.48
68177;DHT22;56478;50.982;7.032;2024-01-15T04:37:09;2.56;88.42
68177;DHT22;56478;50.982;7.032;2024-01-15T04:39:35;2.63;88.10
68177;DHT22;56478;50.982;7.032;2024-01-15T04:42:00;2.61;88.10
68177;DHT22;56478;50.982;7.032;2024-01-15T04:44:26;2.61;88.23
68177;DHT22;56478;50.982;7.032;2024-01-15T04:46:52;2.60;88.31
68177;DHT22;56478;50.982;7.032;2024-01-15T04:49:17;2.70;87.77
68177;DHT22;56478;50.982;7.032;2024-01-15T04:51:43;2.72;87.70
68177;DHT22;56478;50.982;7.032;2024-01-15T04:54:08;2.64;88.24
68177;DHT22;56478;50.982;7.032;2024-01-15T04:56:34;2.64;88.10
68177;DHT22;56478;50.982;7.032;2024-01-15T04:58:59;2.68;88.09
68177;DHT22;56478;50.982;7.032;2024-01-15T05:01:25;2.64;87.78
68177;DHT22;56478;50.982;7.032;2024-01-15T05:03:51;2.68;87.78
68177;DHT22;56478;50.982;7.032;2024-01-15T05:06:16;2.61;87.57
68177;DHT22;56478;50.982;7.032;2024-01-15T05:08:42;2.58;87.67
68177;DHT22;56478;50.982;7.032;2024-01-15T05:11:07;2.68;87.83
68177;DHT22;56478;50.982;7.032;2024-01-15T05:13:33;2.66;87.98
68177;DHT22;56478;50.982;7.032;2024-01-15T05:15:58;2.67;88.00
68177;DHT22;56478;50.982;7.032;2024-01-15T05:18:24;2.73;87.93
68177;DHT22;56478;50.982;7.032;2024-01-15T05:20:50;2.77;87.80
68177;DHT22;56478;50.982;7.032;2024-01-15T05:23:15;2.73;87.56
68177;DHT22;56478;50.982;7.032;2024-01-15T05:25:41;2.79;87.90
68177;DHT22;56478;50.982;7.032;2024-01-15T05:28:07;2.74;87.45
68177;DHT22;56478;50.982;7.032;2024-01-15T05:30:33;2.74;88.12
68177;DHT22;56478;50.982;7.032;2024-01-15T05:32:58;2.66;87.58
68177;DHT22;56478;50.982;7.032;2024-01-15T05:35:25;2.73;88.05
68177;DHT22;56478;50.982;7.032;2024-01-15T05:37:51;2.70;87.70
68177;DHT22;56478;50.982;7.032;2024-01-15T05:40:16;2.73;87.81
68177;DHT22;56478;50.982;7.032;2024-01-15T05:42:42;2.79;87.82
68177;DHT22;56478;50.982;7.032;2024-01-15T05:45:08;2.85;87.90
68177;DHT22;56478;50.982;7.032;2024-01-15T05:47:34;2.81;87.59
68177;DHT22;56478;50.982;7.032;2024-01-15T05:50:00;2.87;87.63
68177;DHT22;56478;50.982;7.032;2024-01-15T05:52:25;2.84;87.44
68177;DHT22;56478;50.982;7.032;2024-01-15T05:54:51;2.85;87.70
68177;DHT22;56478;50.982;7.032;2024-01-15T05:57:17;2.70;87.78
68177;DHT22;56478;50.982;7.032;2024-01-15T05:59:44;2.60;88.59
68177;DHT22;56478;50.982;7.032;2024-01-15T06:02:09;2.56;89.09
68177;DHT22;56478;50.982;7.032;2024-01-15T06:04:38;2.64;88.87
68177;DHT22;56478;50.982;7.032;2024-01-15T06:07:03;2.72;88.66
68177;DHT22;56478;50.982;7.032;2024-01-15T06:09:29;2.74;88.24
68177;DHT22;56478;50.982;7.032;2024-01-15T06:11:55;2.72;88.52
68177;DHT22;56478;50.982;7.032;2024-01-15T06:14:20;2.70;88.32
68177;DHT22;56478;50.982;7.032;2024-01-15T06:16:46;2.77;87.99
68177;DHT22;56478;50.982;7.032;2024-01-15T06:19:11;2.76;88.58
68177;DHT22;56478;50.982;7.032;2024-01-15T06:21:37;2.77;88.47
68177;DHT22;56478;50.982;7.032;2024-01-15T06:24:03;2.76;88.31
68177;DHT22;56478;50.982;7.032;2024-01-15T06:26:28;2.79;88.09
68177;DHT22;56478;50.982;7.032;2024-01-15T06:28:54;2.80;88.37
68177;DHT22;56478;50.982;7.032;2024-01-15T06:31:19;2.85;88.06
68177;DHT22;56478;50.982;7.032;2024-01-15T06:33:45;2.88;88.90
68177;DHT22;56478;50.982;7.032;2024-01-15T06:36:13;2.87;88.13
68177;DHT22;56478;50.982;7.032;2024-01-15T06:38:39;2.92;87.56
68177;DHT22;56478;50.982;7.032;2024-01-15T06:41:05;2.87;87.81
68177;DHT22;56478;50.982;7.032;2024-01-15T06:43:31;2.80;88.17
68177;DHT22;56478;50.982;7.032;2024-01-15T06:45:56;2.79;88.24
68177;DHT22;56478;50.982;7.032;2024-01-15T06:48:22;2.84;87.95
68177;DHT22;56478;50.982;7.032;2024-01-15T06:50:48;2.90;88.15
68177;DHT22;56478;50.982;7.032;2024-01-15T06:53:14;2.92;88.46
68177;DHT22;56478;50.982;7.032;2024-01-15T06:55:39;2.90;88.01
68177;DHT22;56478;50.982;7.032;2024-01-15T06:58:05;2.88;88.07
68177;DHT22;56478;50.982;7.032;2024-01-15T07:00:30;2.92;87.65
68177;DHT22;56478;50.982;7.032;2024-01-15T07:02:56;2.88;88.16
68177;DHT22;56478;50.982;7.032;2024-01-15T07:05:22;2.83;88.45
68177;DHT22;56478;50.982;7.032;2024-01-15T07:07:47;2.77;88.68
68177;DHT22;56478;50.982;7.032;2024-01-15T07:10:13;2.80;88.71
68177;DHT22;56478;50.982;7.032;2024-01-15T07:12:41;2.85;88.77
68177;DHT22;56478;50.982;7.032;2024-01-15T07:15:07;2.77;88.84
68177;DHT22;56478;50.982;7.032;2024-01-15T07:17:33;2.83;89.56
68177;DHT22;56478;50.982;7.032;2024-01-15T07:19:59;2.95;88.50
68177;DHT22;56478;50.982;7.032;2024-01-15T07:22:24;2.98;88.35
68177;DHT22;56478;50.982;7.032;2024-01-15T07:24:50;2.88;88.93
68177;DHT22;56478;50.982;7.032;2024-01-15T07:27:15;2.91;88.92
68177;DHT22;56478;50.982;7.032;2024-01-15T07:29:41;2.80;88.50
68177;DHT22;56478;50.982;7.032;2024-01-15T07:32:11;2.83;89.04
68177;DHT22;56478;50.982;7.032;2024-01-15T07:34:36;2.87;88.35
68177;DHT22;56478;50.982;7.032;2024-01-15T07:37:02;2.81;88.69
68177;DHT22;56478;50.982;7.032;2024-01-15T07:39:29;2.81;88.53
68177;DHT22;56478;50.982;7.032;2024-01-15T07:41:55;2.88;88.50
68177;DHT22;56478;50.982;7.032;2024-01-15T07:44:21;2.85;88.33
68177;DHT22;56478;50.982;7.032;2024-01-15T07:46:47;2.81;87.88
68177;DHT22;56478;50.982;7.032;2024-01-15T07:49:12;2.87;88.16
68177;DHT22;56478;50.982;7.032;2024-01-15T07:51:38;2.87;88.32
68177;DHT22;56478;50.982;7.032;2024-01-15T07:54:05;2.92;88.08
68177;DHT22;56478;50.982;7.032;2024-01-15T07:56:31;2.83;88.11
68177;DHT22;56478;50.982;7.032;2024-01-15T07:58:57;2.94;88.09
68177;DHT22;56478;50.982;7.032;2024-01-15T08:01:23;2.76;87.91
68177;DHT22;56478;50.982;7.032;2024-01-15T08:03:48;2.85;87.60
68177;DHT22;56478;50.982;7.032;2024-01-15T08:06:14;2.88;87.97
68177;DHT22;56478;50.982;7.032;2024-01-15T08:08:40;2.92;87.67
68177;DHT22;56478;50.982;7.032;2024-01-15T08:11:05;3.00;87.80
68177;DHT22;56478;50.982;7.032;2024-01-15T08:13:31;3.00;87.63
68177;DHT22;56478;50.982;7.032;2024-01-15T08:15:56;3.04;87.20
68177;DHT22;56478;50.982;7.032;2024-01-15T08:18:22;3.07;86.92
68177;DHT22;56478;50.982;7.032;2024-01-15T08:20:48;3.13;86.90
68177;DHT22;56478;50.982;7.032;2024-01-15T08:23:15;3.08;87.06
68177;DHT22;56478;50.982;7.032;2024-01-15T08:25:41;3.08;86.67
68177;DHT22;56478;50.982;7.032;2024-01-15T08:28:06;3.05;86.98
68177;DHT22;56478;50.982;7.032;2024-01-15T08:30:33;3.07;86.85
68177;DHT22;56478;50.982;7.032;2024-01-15T08:32:59;3.07;86.41
68177;DHT22;56478;50.982;7.032;2024-01-15T08:35:25;3.09;86.79
68177;DHT22;56478;50.982;7.032;2024-01-15T08:37:54;3.11;86.48
68177;DHT22;56478;50.982;7.032;2024-01-15T08:40:19;3.13;86.73
68177;DHT22;56478;50.982;7.032;2024-01-15T08:42:45;3.16;86.27
68177;DHT22;56478;50.982;7.032;2024-01-15T08:45:11;3.19;85.76
68177;DHT22;56478;50.982;7.032;2024-01-15T08:47:37;3.18;86.07
68177;DHT22;56478;50.982;7.032;2024-01-15T08:50:03;3.11;85.36
68177;DHT22;56478;50.982;7.032;2024-01-15T08:52:29;3.05;85.80
68177;DHT22;56478;50.982;7.032;2024-01-15T08:54:56;3.09;86.49
68177;DHT22;56478;50.982;7.032;2024-01-15T08:57:22;3.12;86.42
68177;DHT22;56478;50.982;7.032;2024-01-15T08:59:48;3.13;86.91
68177;DHT22;56478;50.982;7.032;2024-01-15T09:02:13;3.13;86.08
68177;DHT22;56478;50.982;7.032;2024-01-15T09:04:39;3.04;87.41
68177;DHT22;56478;50.982;7.032;2024-01-15T09:07:04;3.07;87.17
68177;DHT22;56478;50.982;7.032;2024-01-15T09:09:30;3.11;87.28
68177;DHT22;56478;50.982;7.032;2024-01-15T09:11:55;3.04;87.46
68177;DHT22;56478;50.982;7.032;2024-01-15T09:14:21;2.98;87.14
68177;DHT22;56478;50.982;7.032;2024-01-15T09:16:47;3.04;87.29
68177;DHT22;56478;50.982;7.032;2024-01-15T09:19:13;2.92;87.60
68177;DHT22;56478;50.982;7.032;2024-01-15T09:21:39;3.00;87.68
68177;DHT22;56478;50.982;7.032;2024-01-15T09:24:05;2.88;87.90
68177;DHT22;56478;50.982;7.032;2024-01-15T09:26:30;2.84;88.22
68177;DHT22;56478;50.982;7.032;2024-01-15T09:28:57;2.98;87.98
68177;DHT22;56478;50.982;7.032;2024-01-15T09:31:22;2.95;88.04
68177;DHT22;56478;50.982;7.032;2024-01-15T09:33:48;2.98;88.01
68177;DHT22;56478;50.982;7.032;2024-01-15T09:36:14;2.90;87.91
68177;DHT22;56478;50.982;7.032;2024-01-15T09:38:40;2.85;87.98
68177;DHT22;56478;50.982;7.032;2024-01-15T09:41:06;2.94;87.94
68177;DHT22;56478;50.982;7.032;2024-01-15T09:43:32;2.91;88.33
68177;DHT22;56478;50.982;7.032;2024-01-15T09:45:57;2.84;87.83
68177;DHT22;56478;50.982;7.032;2024-01-15T09:48:23;2.80;88.66
68177;DHT22;56478;50.982;7.032;2024-01-15T09:50:50;2.74;88.58
68177;DHT22;56478;50.982;7.032;2024-01-15T09:53:15;2.68;88.50
68177;DHT22;56478;50.982;7.032;2024-01-15T09:55:41;2.60;89.44
68177;DHT22;56478;50.982;7.032;2024-01-15T09:58:06;2.57;89.30
68177;DHT22;56478;50.982;7.032;2024-01-15T10:00:33;2.57;89.51
68177;DHT22;56478;50.982;7.032;2024-01-15T10:02:58;2.66;88.85
68177;DHT22;56478;50.982;7.032;2024-01-15T10:05:27;2.64;89.34
68177;DHT22;56478;50.982;7.032;2024-01-15T10:07:53;2.72;89.07
68177;DHT22;56478;50.982;7.032;2024-01-15T10:10:18;2.67;89.23
68177;DHT22;56478;50.982;7.032;2024-01-15T10:12:44;2.74;89.53
68177;DHT22;56478;50.982;7.032;2024-01-15T10:15:11;2.87;88.62
68177;DHT22;56478;50.982;7.032;2024-01-15T10:17:37;2.85;88.43
68177;DHT22;56478;50.982;7.032;2024-01-15T10:20:07;2.92;88.66
68177;DHT22;56478;50.982;7.032;2024-01-15T10:22:35;2.90;88.75
68177;DHT22;56478;50.982;7.032;2024-01-15T10:25:04;3.00;88.79
68177;DHT22;56478;50.982;7.032;2024-01-15T10:27:30;2.98;88.61
68177;DHT22;56478;50.982;7.032;2024-01-15T10:29:58;2.87;89.20
68177;DHT22;56478;50.982;7.032;2024-01-15T10:32:24;2.85;88.88
68177;DHT22;56478;50.982;7.032;2024-01-15T10:34:51;2.76;88.87
68177;DHT22;56478;50.982;7.032;2024-01-15T10:37:17;2.79;89.31
68177;DHT22;56478;50.982;7.032;2024-01-15T10:39:45;2.68;89.38
68177;DHT22;56478;50.982;7.032;2024-01-15T10:42:11;2.57;89.61
68177;DHT22;56478;50.982;7.032;2024-01-15T10:44:36;2.76;89.37
68177;DHT22;56478;50.982;7.032;2024-01-15T10:47:02;2.88;89.54
68177;DHT22;56478;50.982;7.032;2024-01-15T10:49:28;2.84;88.55
68177;DHT22;56478;50.982;7.032;2024-01-15T10:51:55;2.90;88.67
68177;DHT22;56478;50.982;7.032;2024-01-15T10:54:21;2.91;88.78
68177;DHT22;56478;50.982;7.032;2024-01-15T10:56:49;2.92;88.00
68177;DHT22;56478;50.982;7.032;2024-01-15T10:59:15;2.83;88.47
68177;DHT22;56478;50.982;7.032;2024-01-15T11:01:41;2.85;89.16
68177;DHT22;56478;50.982;7.032;2024-01-15T11:04:08;2.90;89.46
68177;DHT22;56478;50.982;7.032;2024-01-15T11:06:44;2.92;88.63
68177;DHT22;56478;50.982;7.032;2024-01-15T11:09:11;2.98;88.94
68177;DHT22;56478;50.982;7.032;2024-01-15T11:11:40;3.09;88.79
68177;DHT22;56478;50.982;7.032;2024-01-15T11:14:05;3.22;88.54
68177;DHT22;56478;50.982;7.032;2024-01-15T11:22:08;3.11;88.39
68177;DHT22;56478;50.982;7.032;2024-01-15T11:24:34;3.13;88.19
68177;DHT22;56478;50.982;7.032;2024-01-15T11:27:01;3.47;88.04
68177;DHT22;56478;50.982;7.032;2024-01-15T11:34:21;3.46;86.90
68177;DHT22;56478;50.982;7.032;2024-01-15T11:37:07;3.42;87.26
68177;DHT22;56478;50.982;7.032;2024-01-15T11:41:59;3.46;87.17
68177;DHT22;56478;50.982;7.032;2024-01-15T11:44:25;3.40;86.96
68177;DHT22;56478;50.982;7.032;2024-01-15T11:46:57;3.46;86.67
68177;DHT22;56478;50.982;7.032;2024-01-15T11:49:28;3.50;87.10
68177;DHT22;56478;50.982;7.032;2024-01-15T11:51:59;3.35;86.33
68177;DHT22;56478;50.982;7.032;2024-01-15T11:54:26;3.32;86.90
68177;DHT22;56478;50.982;7.032;2024-01-15T11:56:53;3.42;87.18
68177;DHT22;56478;50.982;7.032;2024-01-15T11:59:19;3.52;87.29
68177;DHT22;56478;50.982;7.032;2024-01-15T12:01:45;3.46;86.33
68177;DHT22;56478;50.982;7.032;2024-01-15T12:04:10;3.59;86.02
68177;DHT22;56478;50.982;7.032;2024-01-15T12:06:36;3.57;86.51
68177;DHT22;56478;50.982;7.032;2024-01-15T12:09:05;3.59;85.70
68177;DHT22;56478;50.982;7.032;2024-01-15T12:11:31;3.42;85.78
68177;DHT22;56478;50.982;7.032;2024-01-15T12:13:58;3.56;86.06
68177;DHT22;56478;50.982;7.032;2024-01-15T12:16:25;3.56;86.61
68177;DHT22;56478;50.982;7.032;2024-01-15T12:18:50;3.66;85.83
68177;DHT22;56478;50.982;7.032;2024-01-15T12:21:16;3.75;85.51
68177;DHT22;56478;50.982;7.032;2024-01-15T12:23:41;3.74;85.06
68177;DHT22;56478;50.982;7.032;2024-01-15T12:26:07;4.01;84.66
68177;DHT22;56478;50.982;7.032;2024-01-15T12:28:32;4.23;84.32
68177;DHT22;56478;50.982;7.032;2024-01-15T12:30:58;4.32;84.23
68177;DHT22;56478;50.982;7.032;2024-01-15T12:33:25;4.17;83.82
68177;DHT22;56478;50.982;7.032;2024-01-15T12:35:53;4.33;84.08
68177;DHT22;56478;50.982;7.032;2024-01-15T12:38:19;4.43;82.95
68177;DHT22;56478;50.982;7.032;2024-01-15T12:40:45;4.28;83.68
68177;DHT22;56478;50.982;7.032;2024-01-15T12:43:13;4.09;83.18
68177;DHT22;56478;50.982;7.032;2024-01-15T12:45:40;4.05;83.89
68177;DHT22;56478;50.982;7.032;2024-01-15T12:48:05;4.06;83.86
68177;DHT22;56478;50.982;7.032;2024-01-15T12:50:31;4.06;83.77
68177;DHT22;56478;50.982;7.032;2024-01-15T12:52:58;3.87;83.88
68177;DHT22;56478;50.982;7.032;2024-01-15T12:55:24;3.99;83.43
68177;DHT22;56478;50.982;7.032;2024-01-15T12:57:50;3.75;83.77
68177;DHT22;56478;50.982;7.032;2024-01-15T13:00:19;3.75;83.65
68177;DHT22;56478;50.982;7.032;2024-01-15T13:02:45;3.73;83.92
68177;DHT22;56478;50.982;7.032;2024-01-15T13:05:11;3.66;83.95
68177;DHT22;56478;50.982;7.032;2024-01-15T13:07:37;3.61;84.98
68177;DHT22;56478;50.982;7.032;2024-01-15T13:10:03;3.70;84.58
68177;DHT22;56478;50.982;7.032;2024-01-15T13:12:28;3.73;85.12
68177;DHT22;56478;50.982;7.032;2024-01-15T13:14:54;3.77;84.49
68177;DHT22;56478;50.982;7.032;2024-01-15T13:17:20;3.70;83.98
68177;DHT22;56478;50.982;7.032;2024-01-15T13:19:46;3.64;83.85
68177;DHT22;56478;50.982;7.032;2024-01-15T13:22:12;3.56;84.79
68177;DHT22;56478;50.982;7.032;2024-01-15T13:24:39;3.70;84.46
68177;DHT22;56478;50.982;7.032;2024-01-15T13:27:05;3.64;83.88
68177;DHT22;56478;50.982;7.032;2024-01-15T13:29:31;3.73;84.03
68177;DHT22;56478;50.982;7.032;2024-01-15T13:31:56;3.66;83.61
68177;DHT22;56478;50.982;7.032;2024-01-15T13:34:22;3.63;83.34
68177;DHT22;56478;50.982;7.032;2024-01-15T13:36:48;3.64;83.74
68177;DHT22;56478;50.982;7.032;2024-01-15T13:39:15;3.42;84.78
68177;DHT22;56478;50.982;7.032;2024-01-15T13:41:45;3.42;84.92
68177;DHT22;56478;50.982;7.032;2024-01-15T13:44:11;3.56;84.96
68177;DHT22;56478;50.982;7.032;2024-01-15T13:46:36;3.49;84.86
68177;DHT22;56478;50.982;7.032;2024-01-15T13:49:03;3.49;84.58
68177;DHT22;56478;50.982;7.032;2024-01-15T13:51:31;3.50;84.96
68177;DHT22;56478;50.982;7.032;2024-01-15T13:53:57;3.64;84.99
68177;DHT22;56478;50.982;7.032;2024-01-15T13:56:22;3.70;85.36
68177;DHT22;56478;50.982;7.032;2024-01-15T13:58:48;3.67;84.70
68177;DHT22;56478;50.982;7.032;2024-01-15T14:01:13;3.69;85.72
68177;DHT22;56478;50.982;7.032;2024-01-15T14:03:39;3.66;84.94
68177;DHT22;56478;50.982;7.032;2024-01-15T14:06:04;3.61;85.22
68177;DHT22;56478;50.982;7.032;2024-01-15T14:08:34;3.64;85.34
68177;DHT22;56478;50.982;7.032;2024-01-15T14:11:01;3.56;85.07
68177;DHT22;56478;50.982;7.032;2024-01-15T14:13:26;3.40;85.39
68177;DHT22;56478;50.982;7.032;2024-01-15T14:15:52;3.40;85.49
68177;DHT22;56478;50.982;7.032;2024-01-15T14:18:17;3.39;86.41
68177;DHT22;56478;50.982;7.032;2024-01-15T14:21:06;3.47;85.03
68177;DHT22;56478;50.982;7.032;2024-01-15T14:23:31;3.26;86.10
68177;DHT22;56478;50.982;7.032;2024-01-15T14:25:57;3.33;86.35
68177;DHT22;56478;50.982;7.032;2024-01-15T14:28:22;3.30;86.16
68177;DHT22;56478;50.982;7.032;2024-01-15T14:30:48;3.28;85.72
68177;DHT22;56478;50.982;7.032;2024-01-15T14:33:14;3.28;85.62
68177;DHT22;56478;50.982;7.032;2024-01-15T14:35:39;3.11;86.11
68177;DHT22;56478;50.982;7.032;2024-01-15T14:38:05;3.20;85.99
68177;DHT22;56478;50.982;7.032;2024-01-15T14:40:33;3.25;85.93
68177;DHT22;56478;50.982;7.032;2024-01-15T14:42:58;3.20;86.00
68177;DHT22;56478;50.982;7.032;2024-01-15T14:45:24;3.23;86.00
68177;DHT22;56478;50.982;7.032;2024-01-15T14:47:49;3.28;85.82
68177;DHT22;56478;50.982;7.032;2024-01-15T14:50:15;3.29;85.83
68177;DHT22;56478;50.982;7.032;2024-01-15T14:52:40;3.29;85.32
68177;DHT22;56478;50.982;7.032;2024-01-15T14:55:10;3.30;85.63
68177;DHT22;56478;50.982;7.032;2024-01-15T14:57:35;3.22;85.88
68177;DHT22;56478;50.982;7.032;2024-01-15T15:00:02;3.19;85.98
68177;DHT22;56478;50.982;7.032;2024-01-15T15:02:32;3.16;85.97
68177;DHT22;56478;50.982;7.032;2024-01-15T15:04:57;3.23;85.97
68177;DHT22;56478;50.982;7.032;2024-01-15T15:07:23;3.13;86.05
68177;DHT22;56478;50.982;7.032;2024-01-15T15:09:49;3.15;86.21
68177;DHT22;56478;50.982;7.032;2024-01-15T15:12:16;3.12;86.44
68177;DHT22;56478;50.982;7.032;2024-01-15T15:14:41;3.07;86.54
68177;DHT22;56478;50.982;7.032;2024-01-15T15:17:08;3.05;86.14
68177;DHT22;56478;50.982;7.032;2024-01-15T15:19:34;3.08;86.37
68177;DHT22;56478;50.982;7.032;2024-01-15T15:22:00;3.01;85.92
68177;DHT22;56478;50.982;7.032;2024-01-15T15:24:26;2.98;85.84
68177;DHT22;56478;50.982;7.032;2024-01-15T15:26:52;2.97;86.26
68177;DHT22;56478;50.982;7.032;2024-01-15T15:29:17;3.04;86.55
68177;DHT22;56478;50.982;7.032;2024-01-15T15:31:43;2.90;86.18
68177;DHT22;56478;50.982;7.032;2024-01-15T15:34:09;2.95;86.73
68177;DHT22;56478;50.982;7.032;2024-01-15T15:36:35;2.94;86.51
68177;DHT22;56478;50.982;7.032;2024-01-15T15:39:01;2.97;86.54
68177;DHT22;56478;50.982;7.032;2024-01-15T15:41:26;2.97;86.58
68177;DHT22;56478;50.982;7.032;2024-01-15T15:43:53;2.81;87.09
68177;DHT22;56478;50.982;7.032;2024-01-15T15:46:19;2.81;87.18
68177;DHT22;56478;50.982;7.032;2024-01-15T15:48:44;2.80;87.07
68177;DHT22;56478;50.982;7.032;2024-01-15T15:51:10;2.74;87.80